シドニー の空港の天気 - METARとTAF

シドニー国際空港 ( YSSY / SYD ) - オーストラリア ニューサウスウェールズ州、Mascot
飛行場実況気象(Metar)
観測時間05/31 02:30 AEST (05/30 16:30 UTC)
風向・風速北北西 3m/s
視程10km以上
天気現象
なし
気温13℃
湿度88%
気圧1020hPa
METARYSSY 301630Z 33006KT CAVOK 13/11 Q1020 NOSIG
過去の天気等 Google飛行場航空写真 Wunderground天気予報

過去48時間のMETAR

飛行場予報(TAF)
発表時間: 5/30 21:04 AEST (5/30 11:04 UTC)
予報対象時間: 30日22時 AEST ~ 1日4時 AEST
風向・風速北北西 5m/s
視程10km以上
なし
31日2時 AEST から 確率 30% で
視程2000m
天気現象もや
全天の4割程度の雲 雲底高度 30m
TAF YSSY 301104Z 3012/3118 34010KT CAVOK
PROB30 3016/3022 2000 BR SCT001